createdAt,value
2022-08-25T00:01:30.017Z,46.28
2022-08-25T00:04:53.778Z,46.53
2022-08-25T00:08:16.007Z,46.83
2022-08-25T00:11:38.007Z,47.20
2022-08-25T00:14:58.990Z,47.60
2022-08-25T00:18:20.151Z,47.61
2022-08-25T00:21:41.981Z,47.94
2022-08-25T00:25:03.013Z,48.28
2022-08-25T00:28:23.998Z,48.46
2022-08-25T00:31:45.059Z,48.72
2022-08-25T00:35:06.991Z,48.97
2022-08-25T00:38:28.022Z,48.83
2022-08-25T00:41:50.012Z,49.11
2022-08-25T00:45:11.004Z,49.28
2022-08-25T00:48:32.002Z,49.46
2022-08-25T00:52:01.021Z,49.51
2022-08-25T00:55:34.012Z,49.73
2022-08-25T00:58:56.020Z,49.98
2022-08-25T01:02:19.045Z,50.00
2022-08-25T01:05:42.057Z,50.34
2022-08-25T01:09:04.011Z,50.38
2022-08-25T01:12:25.037Z,50.56
2022-08-25T01:15:49.070Z,50.56
2022-08-25T01:19:15.556Z,50.88
2022-08-25T01:22:35.994Z,50.98
2022-08-25T01:26:10.016Z,51.21
2022-08-25T01:29:33.040Z,51.43
2022-08-25T01:32:54.030Z,51.46
2022-08-25T01:36:15.031Z,51.75
2022-08-25T01:39:37.069Z,51.94
2022-08-25T01:43:26.034Z,52.06
2022-08-25T01:46:47.018Z,52.34
2022-08-25T01:50:08.037Z,52.57
2022-08-25T01:53:42.029Z,52.81
2022-08-25T01:57:03.036Z,53.17
2022-08-25T02:00:25.044Z,53.48
2022-08-25T02:03:46.409Z,53.55
2022-08-25T02:07:10.024Z,53.70
2022-08-25T02:10:31.038Z,53.77
2022-08-25T02:13:53.047Z,53.99
2022-08-25T02:17:14.058Z,54.05
2022-08-25T02:20:35.037Z,53.97
2022-08-25T02:23:56.038Z,54.08
2022-08-25T02:27:17.075Z,54.17
2022-08-25T02:30:38.192Z,54.27
2022-08-25T02:33:59.020Z,54.53
2022-08-25T02:37:21.050Z,54.70
2022-08-25T02:40:42.041Z,54.65
2022-08-25T02:44:04.040Z,54.62
2022-08-25T02:47:27.026Z,54.67
2022-08-25T02:50:41.053Z,54.61
2022-08-25T02:54:04.035Z,54.67
2022-08-25T02:57:25.070Z,54.50
2022-08-25T03:00:46.168Z,54.38
2022-08-25T03:04:07.054Z,53.81
2022-08-25T03:07:28.106Z,53.41
2022-08-25T03:10:54.058Z,52.90
2022-08-25T03:14:15.075Z,52.36
2022-08-25T03:17:36.067Z,52.07
2022-08-25T03:20:57.057Z,51.76
2022-08-25T03:24:19.064Z,51.29
2022-08-25T03:27:40.074Z,50.98
2022-08-25T03:31:01.062Z,50.76
2022-08-25T03:34:23.099Z,50.35
2022-08-25T03:37:44.055Z,49.98
2022-08-25T03:41:06.098Z,49.75
2022-08-25T03:44:28.049Z,49.41
2022-08-25T03:47:49.060Z,49.10
2022-08-25T03:51:10.048Z,48.94
2022-08-25T03:54:35.061Z,48.69
2022-08-25T03:57:56.059Z,48.79
2022-08-25T04:01:18.217Z,48.66
2022-08-25T04:04:39.079Z,48.65
2022-08-25T04:08:00.187Z,48.32
2022-08-25T04:11:27.088Z,48.11
2022-08-25T04:14:48.076Z,47.98
2022-08-25T04:18:11.078Z,47.98
2022-08-25T04:21:33.067Z,47.71
2022-08-25T04:24:54.065Z,47.61
2022-08-25T04:28:16.069Z,47.38
2022-08-25T04:31:37.101Z,46.89
2022-08-25T04:34:58.092Z,46.74
2022-08-25T04:38:19.118Z,46.57
2022-08-25T04:41:40.065Z,46.22
2022-08-25T04:45:01.108Z,45.89
2022-08-25T04:48:22.089Z,45.58
2022-08-25T04:51:49.102Z,45.18
2022-08-25T04:55:10.122Z,44.73
2022-08-25T04:58:31.111Z,44.52
2022-08-25T05:01:56.138Z,44.26
2022-08-25T05:05:17.101Z,44.09
2022-08-25T05:08:38.082Z,43.54
2022-08-25T05:11:59.089Z,43.51
2022-08-25T05:15:33.083Z,43.18
2022-08-25T05:18:55.096Z,42.90
2022-08-25T05:22:16.083Z,42.46
2022-08-25T05:25:38.124Z,41.95
2022-08-25T05:28:59.093Z,41.89
2022-08-25T05:32:20.103Z,41.46
2022-08-25T05:35:41.100Z,41.37
2022-08-25T05:39:02.124Z,41.05
2022-08-25T05:42:23.083Z,40.98
2022-08-25T05:45:38.170Z,40.62
2022-08-25T05:49:00.090Z,40.83
2022-08-25T05:52:21.110Z,40.32
2022-08-25T05:55:42.087Z,40.42
2022-08-25T05:59:07.333Z,40.06
2022-08-25T06:02:48.111Z,40.14
2022-08-25T06:06:19.096Z,39.66
2022-08-25T06:09:40.123Z,39.66
2022-08-25T06:13:02.123Z,39.40
2022-08-25T06:16:23.234Z,39.23
2022-08-25T06:19:44.109Z,39.08
2022-08-25T06:23:05.123Z,39.18
2022-08-25T06:26:27.110Z,38.99
2022-08-25T06:29:48.135Z,38.55
2022-08-25T06:33:14.107Z,38.26
2022-08-25T06:36:35.148Z,37.99
2022-08-25T06:39:56.213Z,37.75
2022-08-25T06:43:18.125Z,37.63
2022-08-25T06:46:41.160Z,37.33
2022-08-25T06:50:02.138Z,37.06
2022-08-25T06:53:23.130Z,36.67
2022-08-25T06:56:44.188Z,36.75
2022-08-25T07:00:05.118Z,36.55
2022-08-25T07:03:26.227Z,36.28
2022-08-25T07:06:48.129Z,36.38
2022-08-25T07:10:09.145Z,36.17
2022-08-25T07:13:30.130Z,35.93
2022-08-25T07:16:52.140Z,35.54
2022-08-25T07:20:13.655Z,35.26
2022-08-25T07:23:35.155Z,35.20
2022-08-25T07:26:57.132Z,35.24
2022-08-25T07:30:20.146Z,35.23
2022-08-25T07:33:41.124Z,34.90
2022-08-25T07:37:02.142Z,34.77
2022-08-25T07:40:32.202Z,34.24
2022-08-25T07:43:46.154Z,33.88
2022-08-25T07:47:07.165Z,33.70
2022-08-25T07:50:28.196Z,33.52
2022-08-25T07:53:49.187Z,32.92
2022-08-25T07:57:10.147Z,32.93
2022-08-25T08:00:34.152Z,32.48
2022-08-25T08:04:02.913Z,32.25
2022-08-25T08:07:41.139Z,31.80
2022-08-25T08:11:05.434Z,31.61
2022-08-25T08:14:26.151Z,31.27
2022-08-25T08:17:47.155Z,31.08
2022-08-25T08:21:09.173Z,30.84
2022-08-25T08:24:44.234Z,30.89
2022-08-25T08:28:07.245Z,30.40
2022-08-25T08:31:28.195Z,30.53
2022-08-25T08:34:51.383Z,30.08
2022-08-25T08:38:18.499Z,29.88
2022-08-25T08:42:26.175Z,29.77
2022-08-25T08:45:50.183Z,29.66
2022-08-25T08:49:13.227Z,29.21
2022-08-25T08:53:02.192Z,29.00
2022-08-25T08:56:30.655Z,28.59
2022-08-25T09:00:03.192Z,28.41
2022-08-25T09:03:37.259Z,28.09
2022-08-25T09:07:02.171Z,27.64
2022-08-25T09:10:24.159Z,27.35
2022-08-25T09:14:09.184Z,27.36
2022-08-25T09:18:09.550Z,26.79
2022-08-25T09:21:36.182Z,26.82
2022-08-25T09:25:54.214Z,26.42
2022-08-25T09:29:16.540Z,26.14
2022-08-25T09:33:12.997Z,25.82
2022-08-25T09:37:05.983Z,25.58
2022-08-25T09:40:33.431Z,25.66
2022-08-25T09:44:06.175Z,25.21
2022-08-25T09:47:39.189Z,25.05
2022-08-25T09:51:03.311Z,24.55
2022-08-25T09:54:44.396Z,24.39
2022-08-25T09:58:10.225Z,24.27
2022-08-25T10:01:35.232Z,24.16
2022-08-25T10:04:56.217Z,23.97
2022-08-25T10:08:26.207Z,23.83
2022-08-25T10:11:57.450Z,23.67
2022-08-25T10:15:34.230Z,23.66
2022-08-25T10:18:55.201Z,23.71
2022-08-25T10:22:25.190Z,23.48
2022-08-25T10:25:57.806Z,23.39
2022-08-25T10:29:25.189Z,23.12
2022-08-25T10:32:58.205Z,22.99
2022-08-25T10:36:29.248Z,22.93
2022-08-25T10:39:59.228Z,22.70
2022-08-25T10:43:44.234Z,22.41
2022-08-25T10:47:16.200Z,22.46
2022-08-25T10:51:12.614Z,22.81
2022-08-25T10:54:40.190Z,22.86
2022-08-25T10:58:30.773Z,23.02
2022-08-25T11:02:24.227Z,22.99
2022-08-25T11:06:10.207Z,22.95
2022-08-25T11:09:39.252Z,22.84
2022-08-25T11:13:11.368Z,22.79
2022-08-25T11:16:41.279Z,22.80
2022-08-25T11:20:07.198Z,22.59
2022-08-25T11:23:36.214Z,22.12
2022-08-25T11:27:07.211Z,21.89
2022-08-25T11:30:31.286Z,21.89
2022-08-25T11:33:52.212Z,21.85
2022-08-25T11:37:44.223Z,21.71
2022-08-25T11:41:25.203Z,21.69
2022-08-25T11:45:20.266Z,21.51
2022-08-25T11:49:08.227Z,21.43
2022-08-25T11:52:47.202Z,21.37
2022-08-25T11:56:12.240Z,21.36
2022-08-25T12:00:06.236Z,21.70
2022-08-25T12:04:00.304Z,21.63
2022-08-25T12:07:22.020Z,21.91
2022-08-25T12:11:11.166Z,21.76
2022-08-25T12:14:38.233Z,21.46
2022-08-25T12:17:59.312Z,21.37
2022-08-25T12:21:20.249Z,21.19
2022-08-25T12:24:57.232Z,21.04
2022-08-25T12:28:35.237Z,21.17
2022-08-25T12:32:13.232Z,21.29
2022-08-25T12:35:38.251Z,21.14
2022-08-25T12:39:03.223Z,20.87
2022-08-25T12:42:37.811Z,20.75
2022-08-25T12:46:36.236Z,20.08
2022-08-25T12:49:57.234Z,18.40
2022-08-25T12:53:42.240Z,16.86
2022-08-25T12:57:14.226Z,16.05
2022-08-25T13:00:40.282Z,15.25
2022-08-25T13:04:44.234Z,15.50
2022-08-25T13:08:05.391Z,15.32
2022-08-25T13:11:57.218Z,15.10
2022-08-25T13:15:18.247Z,14.70
2022-08-25T13:18:42.232Z,14.05
2022-08-25T13:22:03.279Z,13.88
2022-08-25T13:25:35.262Z,13.47
2022-08-25T13:29:09.181Z,13.60
2022-08-25T13:32:40.307Z,13.66
2022-08-25T13:36:22.246Z,13.28
2022-08-25T13:39:56.483Z,13.12
2022-08-25T13:43:27.568Z,12.59
2022-08-25T13:46:48.289Z,12.15
2022-08-25T13:50:30.268Z,12.48
2022-08-25T13:53:52.307Z,12.69
2022-08-25T13:57:31.237Z,12.33
2022-08-25T14:00:59.542Z,12.13
2022-08-25T14:04:51.741Z,12.10
2022-08-25T14:08:23.361Z,11.89
2022-08-25T14:12:11.259Z,12.30
2022-08-25T14:15:33.433Z,12.31
2022-08-25T14:19:08.270Z,11.83
2022-08-25T14:22:29.288Z,11.86
2022-08-25T14:25:50.271Z,11.53
2022-08-25T14:29:11.330Z,11.82
2022-08-25T14:32:32.281Z,11.45
2022-08-25T14:35:57.258Z,11.85
2022-08-25T14:39:18.262Z,12.00
2022-08-25T14:42:39.274Z,12.08
2022-08-25T14:46:02.579Z,12.08
2022-08-25T14:49:27.254Z,12.07
2022-08-25T14:52:48.293Z,12.22
2022-08-25T14:56:14.305Z,12.04
2022-08-25T14:59:35.262Z,12.08
2022-08-25T15:02:58.270Z,12.18
2022-08-25T15:06:19.349Z,11.81
2022-08-25T15:09:40.261Z,12.14
2022-08-25T15:13:01.261Z,12.38
2022-08-25T15:16:24.321Z,12.44
2022-08-25T15:19:56.308Z,12.42
2022-08-25T15:23:17.292Z,12.58
2022-08-25T15:26:38.322Z,13.42
2022-08-25T15:29:59.328Z,13.80
2022-08-25T15:33:29.279Z,13.91
2022-08-25T15:36:51.294Z,14.32
2022-08-25T15:40:12.373Z,14.22
2022-08-25T15:43:33.310Z,14.31
2022-08-25T15:46:56.264Z,15.06
2022-08-25T15:50:26.201Z,16.22
2022-08-25T15:53:48.342Z,17.60
2022-08-25T15:57:13.964Z,18.37
2022-08-25T16:00:45.299Z,19.41
2022-08-25T16:04:17.274Z,19.89
2022-08-25T16:07:38.272Z,20.37
2022-08-25T16:10:59.293Z,21.02
2022-08-25T16:14:21.262Z,20.96
2022-08-25T16:17:43.643Z,21.43
2022-08-25T16:21:06.287Z,22.08
2022-08-25T16:24:33.334Z,22.11
2022-08-25T16:27:59.296Z,22.71
2022-08-25T16:31:23.331Z,23.07
2022-08-25T16:34:45.321Z,23.52
2022-08-25T16:38:08.291Z,23.67
2022-08-25T16:41:40.312Z,24.18
2022-08-25T16:45:02.310Z,24.63
2022-08-25T16:48:26.338Z,24.56
2022-08-25T16:51:49.293Z,25.11
2022-08-25T16:55:21.294Z,25.75
2022-08-25T16:58:43.299Z,25.73
2022-08-25T17:02:07.374Z,26.45
2022-08-25T17:05:28.284Z,26.71
2022-08-25T17:08:50.306Z,26.74
2022-08-25T17:12:11.296Z,27.22
2022-08-25T17:15:32.332Z,27.46
2022-08-25T17:18:53.292Z,27.72
2022-08-25T17:22:15.316Z,27.94
2022-08-25T17:25:36.304Z,28.19
2022-08-25T17:28:55.315Z,28.09
2022-08-25T17:32:17.298Z,28.37
2022-08-25T17:35:38.307Z,28.66
2022-08-25T17:38:59.294Z,29.07
2022-08-25T17:42:20.349Z,29.21
2022-08-25T17:46:01.342Z,29.36
2022-08-25T17:49:24.324Z,29.60
2022-08-25T17:52:46.461Z,29.88
2022-08-25T17:56:17.330Z,29.67
2022-08-25T17:59:39.327Z,30.21
2022-08-25T18:03:01.338Z,30.32
2022-08-25T18:06:22.375Z,30.27
2022-08-25T18:09:43.323Z,30.59
2022-08-25T18:13:04.339Z,30.79
2022-08-25T18:16:26.334Z,30.64
2022-08-25T18:19:47.334Z,30.68
2022-08-25T18:23:09.823Z,31.08
2022-08-25T18:26:31.352Z,31.14
2022-08-25T18:29:52.329Z,31.45
2022-08-25T18:33:13.345Z,31.43
2022-08-25T18:36:38.674Z,31.56
2022-08-25T18:40:18.416Z,31.57
2022-08-25T18:43:39.325Z,32.00
2022-08-25T18:47:00.350Z,32.19
2022-08-25T18:50:28.334Z,32.19
2022-08-25T18:53:50.244Z,32.31
2022-08-25T18:57:11.326Z,32.74
2022-08-25T19:00:35.334Z,32.59
2022-08-25T19:03:56.364Z,33.06
2022-08-25T19:07:19.356Z,33.29
2022-08-25T19:10:42.343Z,33.44
2022-08-25T19:14:04.347Z,33.74
2022-08-25T19:17:37.426Z,33.77
2022-08-25T19:20:51.386Z,33.84
2022-08-25T19:24:13.390Z,33.91
2022-08-25T19:27:34.351Z,34.30
2022-08-25T19:30:55.402Z,34.26
2022-08-25T19:34:16.347Z,34.01
2022-08-25T19:37:39.354Z,34.65
2022-08-25T19:41:01.356Z,34.79
2022-08-25T19:44:23.365Z,34.63
2022-08-25T19:47:48.342Z,34.94
2022-08-25T19:51:09.372Z,34.97
2022-08-25T19:54:44.396Z,35.42
2022-08-25T19:58:05.350Z,35.21
2022-08-25T20:01:26.469Z,35.66
2022-08-25T20:04:49.394Z,36.04
2022-08-25T20:08:12.363Z,36.06
2022-08-25T20:11:33.362Z,36.60
2022-08-25T20:14:54.363Z,36.58
2022-08-25T20:18:15.376Z,37.02
2022-08-25T20:21:37.605Z,37.19
2022-08-25T20:24:58.689Z,37.47
2022-08-25T20:28:19.389Z,37.51
2022-08-25T20:31:40.377Z,37.58
2022-08-25T20:35:02.405Z,37.84
2022-08-25T20:38:24.373Z,38.18
2022-08-25T20:41:48.242Z,38.25
2022-08-25T20:45:09.376Z,38.46
2022-08-25T20:48:30.404Z,38.46
2022-08-25T20:51:51.377Z,38.73
2022-08-25T20:55:12.441Z,39.00
2022-08-25T20:58:33.372Z,38.93
2022-08-25T21:01:55.469Z,39.07
2022-08-25T21:05:16.366Z,39.26
2022-08-25T21:08:37.396Z,39.37
2022-08-25T21:12:08.429Z,39.53
2022-08-25T21:15:29.392Z,39.46
2022-08-25T21:18:50.404Z,39.54
2022-08-25T21:22:12.404Z,39.71
2022-08-25T21:25:33.387Z,39.71
2022-08-25T21:28:54.395Z,40.16
2022-08-25T21:32:09.392Z,40.42
2022-08-25T21:35:30.404Z,40.46
2022-08-25T21:38:51.388Z,40.65
2022-08-25T21:42:13.451Z,41.10
2022-08-25T21:45:35.933Z,41.45
2022-08-25T21:48:57.411Z,41.60
2022-08-25T21:52:21.393Z,41.63
2022-08-25T21:55:42.395Z,41.91
2022-08-25T21:59:03.386Z,42.04
2022-08-25T22:02:33.451Z,42.33
2022-08-25T22:05:55.392Z,42.37
2022-08-25T22:09:21.386Z,42.62
2022-08-25T22:12:42.380Z,42.80
2022-08-25T22:16:03.444Z,43.21
2022-08-25T22:19:28.429Z,43.62
2022-08-25T22:22:49.424Z,43.70
2022-08-25T22:26:10.437Z,43.97
2022-08-25T22:29:32.412Z,43.99
2022-08-25T22:32:46.413Z,44.25
2022-08-25T22:36:07.406Z,44.33
2022-08-25T22:39:31.422Z,44.09
2022-08-25T22:42:52.443Z,44.13
2022-08-25T22:46:15.448Z,44.17
2022-08-25T22:49:42.415Z,44.22
2022-08-25T22:53:04.502Z,44.21
2022-08-25T22:56:27.414Z,44.31
2022-08-25T22:59:48.426Z,44.76
2022-08-25T23:03:11.493Z,44.85
2022-08-25T23:06:35.426Z,44.85
2022-08-25T23:09:56.417Z,44.93
2022-08-25T23:13:33.863Z,45.12
2022-08-25T23:16:56.463Z,45.10
2022-08-25T23:20:37.442Z,45.25
2022-08-25T23:24:07.428Z,45.38
2022-08-25T23:27:24.435Z,45.63
2022-08-25T23:30:54.549Z,45.69
2022-08-25T23:34:20.442Z,45.44
2022-08-25T23:37:34.465Z,45.76
2022-08-25T23:40:56.476Z,45.94
2022-08-25T23:44:18.588Z,45.53
2022-08-25T23:47:39.447Z,45.59
2022-08-25T23:51:01.452Z,45.57
2022-08-25T23:54:31.167Z,45.31
2022-08-25T23:57:52.456Z,45.38
